KTUP/TUP METAR and TAF weather

Enter ICAO airport designator
Station Type Date Time Source
KTUP METAR 2022/01/26 12:53 UTC NOAA

KTUP 261253Z 01010KT 10SM CLR M04/M12 A3043 RMK AO2 SLP308 T10391117 $


Station Type Date Time Source
KTUP Decoded METAR 2022/01/26 12:53 UTC NOAA

TUPELO REGIONAL AIRPORT, MS, United States (KTUP) 34-16N 88-46W 105M
Jan 26, 2022 - 07:53 AM EST / 2022.01.26 1253 UTC
Wind: from the N (010 degrees) at 12 MPH (10 KT):0
Visibility: 10 mile(s):0
Sky conditions: clear
Temperature: 25.0 F (-3.9 C)
Windchill: 14 F (-10 C):1
Dew Point: 10.9 F (-11.7 C)
Relative Humidity: 54%
Pressure (altimeter): 30.43 in. Hg (1030 hPa)
ob: KTUP 261253Z 01010KT 10SM CLR M04/M12 A3043 RMK AO2 SLP308 T10391117
cycle: 13

Station Type Date Time Source
KTUP TAF 2022/01/26 12:22 UTC NOAA

TAF KTUP 261120Z 2612/2712 02013KT P6SM SCT250
FM262200 04009KT P6SM SKC
FM270100 04003KT P6SM OVC250

Example: see airport list